Time;durP1;ratioP1;P1;durP2;ratioP2;P2;SDS_P1;SDS_P2;PMS_P1;PMS_P2;Temp;Humidity;BMP_temperature;BMP_pressure;BME280_temperature;BME280_humidity;BME280_pressure;Samples;Min_cycle;Max_cycle;Signal;HPM_P1;HPM_P2
2021/12/30 00:00:29;;;;;;;45.40;19.40;;;;;;;2.99;100.00;100520.66;4975998;28;20205;-78
2021/12/30 00:02:55;;;;;;;40.88;18.95;;;;;;;3.00;100.00;100517.13;4975767;28;20193;-78
2021/12/30 00:05:20;;;;;;;39.10;17.48;;;;;;;3.06;100.00;100521.44;4973413;28;20174;-78
2021/12/30 00:07:46;;;;;;;41.92;18.73;;;;;;;3.09;100.00;100521.44;4973021;28;20248;-79
2021/12/30 00:10:12;;;;;;;39.92;18.88;;;;;;;3.13;100.00;100524.88;4972672;28;20395;-79
2021/12/30 00:12:38;;;;;;;37.50;18.00;;;;;;;3.19;100.00;100523.06;4973063;28;20213;-79
2021/12/30 00:15:06;;;;;;;41.80;18.77;;;;;;;3.17;100.00;100530.16;4974237;28;20170;-78
2021/12/30 00:17:31;;;;;;;40.38;19.08;;;;;;;3.21;100.00;100526.53;4973620;28;20248;-78
2021/12/30 00:19:57;;;;;;;36.97;18.17;;;;;;;3.23;100.00;100513.28;4974366;28;20174;-79
2021/12/30 00:22:23;;;;;;;34.00;17.67;;;;;;;3.25;100.00;100517.66;4972789;28;20264;-78
2021/12/30 00:24:49;;;;;;;42.20;18.98;;;;;;;3.26;100.00;100521.22;4973124;28;20181;-79
2021/12/30 00:27:14;;;;;;;39.17;18.77;;;;;;;3.31;100.00;100529.97;4974714;28;20190;-77
2021/12/30 00:29:40;;;;;;;40.70;18.75;;;;;;;3.30;100.00;100523.81;4959688;28;20182;-78
2021/12/30 00:32:05;;;;;;;38.53;19.00;;;;;;;3.34;100.00;100515.81;4976636;28;20229;-78
2021/12/30 00:34:31;;;;;;;37.28;18.58;;;;;;;3.40;100.00;100513.06;4972455;28;20190;-79
2021/12/30 00:36:56;;;;;;;36.50;18.60;;;;;;;3.36;100.00;100503.41;4973111;28;20272;-77
2021/12/30 00:39:22;;;;;;;39.25;18.80;;;;;;;3.40;100.00;100518.38;4973673;28;20301;-77
2021/12/30 00:41:47;;;;;;;40.22;18.00;;;;;;;3.43;100.00;100519.22;4972759;28;20238;-78
2021/12/30 00:44:13;;;;;;;37.50;18.67;;;;;;;3.42;100.00;100519.22;4975341;28;20209;-77
2021/12/30 00:46:38;;;;;;;32.63;17.50;;;;;;;3.57;100.00;100526.97;4976262;28;20261;-78
2021/12/30 00:49:04;;;;;;;42.95;19.83;;;;;;;3.55;100.00;100525.22;4973967;28;20170;-78
2021/12/30 00:51:29;;;;;;;35.80;17.90;;;;;;;3.54;100.00;100521.69;4974473;28;20633;-78
2021/12/30 00:53:55;;;;;;;38.90;19.05;;;;;;;3.50;100.00;100526.16;4958967;28;20174;-79
2021/12/30 00:56:21;;;;;;;42.65;18.40;;;;;;;3.54;100.00;100534.94;4973350;28;20185;-79
2021/12/30 00:58:46;;;;;;;37.33;18.85;;;;;;;3.56;100.00;100553.47;4973511;28;20206;-78
2021/12/30 01:01:12;;;;;;;48.60;19.67;;;;;;;3.54;100.00;100555.25;4972356;28;20754;-78
2021/12/30 01:03:38;;;;;;;41.42;19.42;;;;;;;3.60;100.00;100550.75;4972370;28;20173;-78
2021/12/30 01:06:04;;;;;;;42.00;20.00;;;;;;;3.57;100.00;100545.50;4972240;28;20170;-78
2021/12/30 01:08:29;;;;;;;44.40;20.20;;;;;;;3.61;100.00;100552.50;4972288;28;20178;-78
2021/12/30 01:10:55;;;;;;;41.05;20.17;;;;;;;3.61;100.00;100556.94;4955732;28;20216;-78
2021/12/30 01:13:25;;;;;;;46.35;21.20;;;;;;;3.63;100.00;100545.41;4925522;28;20917;-78
2021/12/30 01:15:59;;;;;;;47.90;21.38;;;;;;;3.66;100.00;100552.44;4972617;28;20164;-76
2021/12/30 01:20:58;;;;;;;57.30;22.65;;;;;;;3.66;100.00;100553.31;4972957;28;20198;-77
2021/12/30 01:23:25;;;;;;;56.22;23.25;;;;;;;3.74;100.00;100562.91;4972530;28;20180;-77
2021/12/30 01:25:51;;;;;;;54.05;23.20;;;;;;;3.76;100.00;100556.72;4971375;28;20586;-76
2021/12/30 01:28:16;;;;;;;65.40;24.75;;;;;;;3.79;100.00;100561.97;4970925;28;20260;-76
2021/12/30 01:30:42;;;;;;;70.22;25.48;;;;;;;3.81;100.00;100576.06;4955596;28;20190;-76
2021/12/30 01:33:07;;;;;;;72.88;25.88;;;;;;;3.83;100.00;100581.34;4971697;28;20182;-76
2021/12/30 01:35:33;;;;;;;75.25;26.30;;;;;;;3.88;100.00;100577.72;4972686;28;20170;-76
2021/12/30 01:38:01;;;;;;;83.70;27.35;;;;;;;3.91;100.00;100582.09;4971584;28;20276;-76
2021/12/30 01:40:29;;;;;;;87.30;28.70;;;;;;;4.02;100.00;100590.75;4973173;28;20260;-76
2021/12/30 01:42:54;;;;;;;90.65;29.27;;;;;;;4.00;100.00;100579.31;4972439;28;20237;-76
2021/12/30 01:45:20;;;;;;;107.80;31.20;;;;;;;4.05;100.00;100568.66;4973251;28;20170;-76
2021/12/30 01:47:50;;;;;;;102.75;29.45;;;;;;;4.15;100.00;100580.84;4972825;28;20170;-77
2021/12/30 01:50:17;;;;;;;94.75;30.13;;;;;;;4.16;100.00;100577.31;4971976;28;20611;-76
2021/12/30 01:52:43;;;;;;;99.97;30.25;;;;;;;4.08;100.00;100580.06;4971201;28;20193;-76
2021/12/30 01:55:10;;;;;;;112.70;32.13;;;;;;;4.11;100.00;100585.34;4971426;28;20640;-77
2021/12/30 01:57:36;;;;;;;136.82;34.83;;;;;;;4.28;100.00;100592.13;4972642;28;20352;-77
2021/12/30 02:00:05;;;;;;;140.20;35.85;;;;;;;4.33;100.00;100596.47;4992038;28;20219;-77
2021/12/30 02:02:38;;;;;;;116.72;31.90;;;;;;;4.22;100.00;100593.13;4990863;28;20717;-77
2021/12/30 02:05:04;;;;;;;125.88;35.50;;;;;;;4.29;100.00;100599.19;4991691;28;20638;-77
2021/12/30 02:07:30;;;;;;;161.02;36.38;;;;;;;4.27;100.00;100599.22;4991474;28;20169;-77
2021/12/30 02:10:00;;;;;;;131.57;35.63;;;;;;;4.32;100.00;100596.50;4990179;28;20178;-76
2021/12/30 02:12:27;;;;;;;123.45;35.42;;;;;;;4.36;100.00;100602.63;4992467;28;20180;-77
2021/12/30 02:14:52;;;;;;;165.88;38.50;;;;;;;4.37;100.00;100605.22;4990928;28;20188;-77
2021/12/30 02:17:18;;;;;;;160.25;37.97;;;;;;;4.43;100.00;100604.25;4991405;28;20591;-76
2021/12/30 02:19:44;;;;;;;165.60;37.10;;;;;;;4.37;100.00;100613.19;4974067;28;20241;-76
2021/12/30 02:22:09;;;;;;;133.85;37.42;;;;;;;4.39;100.00;100622.00;4991243;28;20209;-76
2021/12/30 02:24:37;;;;;;;143.40;38.03;;;;;;;4.45;100.00;100613.94;4992176;28;20173;-76
2021/12/30 02:27:02;;;;;;;151.70;38.50;;;;;;;4.49;100.00;100625.41;4991589;28;20732;-76
2021/12/30 02:29:28;;;;;;;151.82;37.40;;;;;;;4.52;100.00;100617.38;4991615;28;20169;-76
2021/12/30 02:31:53;;;;;;;159.80;38.72;;;;;;;4.57;100.00;100631.47;4990804;28;20571;-76
2021/12/30 02:34:21;;;;;;;161.48;40.17;;;;;;;4.70;100.00;100640.06;4990171;28;20174;-76
2021/12/30 02:36:47;;;;;;;142.50;37.83;;;;;;;4.75;100.00;100646.19;4989201;28;20235;-79
2021/12/30 02:39:13;;;;;;;146.15;37.35;;;;;;;4.71;100.00;100665.72;4990714;28;20241;-77
2021/12/30 02:41:39;;;;;;;151.68;40.15;;;;;;;4.74;100.00;100661.25;4991073;28;20267;-76
2021/12/30 02:44:07;;;;;;;134.95;38.58;;;;;;;4.75;100.00;100662.97;4973912;28;20380;-77
2021/12/30 02:46:35;;;;;;;160.65;39.55;;;;;;;4.82;100.00;100676.16;4985317;28;20201;-76
2021/12/30 02:49:02;;;;;;;145.13;37.58;;;;;;;4.85;100.00;100669.00;4990800;28;20165;-76
2021/12/30 02:51:27;;;;;;;142.50;38.47;;;;;;;4.89;100.00;100670.69;4989227;28;20236;-76
2021/12/30 02:53:54;;;;;;;158.85;38.80;;;;;;;4.93;100.00;100666.22;4989648;28;20646;-76
2021/12/30 02:56:21;;;;;;;130.32;36.25;;;;;;;4.93;100.00;100667.09;4989346;28;20177;-76
2021/12/30 02:58:47;;;;;;;166.43;37.88;;;;;;;4.91;100.00;100682.16;4976086;28;20210;-76
2021/12/30 03:01:18;;;;;;;124.25;35.55;;;;;;;5.08;100.00;100683.66;4971027;28;20216;-76
2021/12/30 03:03:44;;;;;;;136.48;35.00;;;;;;;5.04;100.00;100680.16;4970200;28;20170;-76
2021/12/30 03:06:12;;;;;;;121.32;34.45;;;;;;;5.12;100.00;100675.59;4969589;28;20178;-76
2021/12/30 03:08:39;;;;;;;110.88;32.58;;;;;;;5.15;100.00;100685.28;4971083;28;20170;-76
2021/12/30 03:11:05;;;;;;;122.63;30.73;;;;;;;5.23;100.00;100686.03;4971274;28;20189;-76
2021/12/30 03:13:32;;;;;;;122.57;31.75;;;;;;;5.15;100.00;100683.50;4970112;28;20182;-75
2021/12/30 03:16:00;;;;;;;108.30;29.08;;;;;;;5.20;100.00;100682.53;4969435;28;20560;-75
2021/12/30 03:18:26;;;;;;;108.07;30.00;;;;;;;5.20;100.00;100695.81;4971437;28;20269;-76
2021/12/30 03:20:52;;;;;;;100.45;27.88;;;;;;;5.29;100.00;100695.66;4971306;28;20216;-76
2021/12/30 03:23:18;;;;;;;102.10;27.52;;;;;;;5.21;100.00;100703.78;4970289;28;20182;-77
2021/12/30 03:25:44;;;;;;;114.03;25.98;;;;;;;5.35;100.00;100712.34;4969729;28;20174;-77
2021/12/30 03:28:09;;;;;;;98.68;24.17;;;;;;;5.30;100.00;100692.09;4970428;28;20529;-77
2021/12/30 03:30:35;;;;;;;98.40;23.60;;;;;;;5.36;100.00;100702.63;4970082;28;20445;-77
2021/12/30 03:33:00;;;;;;;80.82;21.13;;;;;;;5.39;100.00;100693.72;4969627;28;20224;-77
2021/12/30 03:35:25;;;;;;;89.55;20.63;;;;;;;5.36;100.00;100698.19;4970998;28;20174;-77
2021/12/30 03:37:51;;;;;;;93.20;20.05;;;;;;;5.43;100.00;100700.72;4970552;28;20272;-77
2021/12/30 03:40:17;;;;;;;92.40;19.65;;;;;;;5.33;100.00;100700.88;4971339;28;20194;-77
2021/12/30 03:42:44;;;;;;;83.90;17.40;;;;;;;5.32;100.00;100700.91;4971555;28;20170;-76
2021/12/30 03:45:11;;;;;;;78.28;17.70;;;;;;;5.31;100.00;100710.69;4969805;28;20190;-76
2021/12/30 03:47:42;;;;;;;84.97;16.15;;;;;;;5.41;100.00;100706.06;4970668;28;20583;-76
2021/12/30 03:50:09;;;;;;;87.80;15.77;;;;;;;5.39;100.00;100712.31;4970900;28;20186;-76
2021/12/30 03:52:35;;;;;;;81.70;14.13;;;;;;;5.34;100.00;100704.44;4969589;28;20265;-76
2021/12/30 03:55:01;;;;;;;68.38;13.27;;;;;;;5.32;100.00;100716.88;4970945;28;20218;-76
2021/12/30 03:57:26;;;;;;;89.38;13.95;;;;;;;5.34;100.00;100709.75;4970323;28;20189;-77
2021/12/30 03:59:52;;;;;;;81.03;12.95;;;;;;;5.27;100.00;100702.78;4990372;28;20177;-78
2021/12/30 04:02:18;;;;;;;74.15;11.90;;;;;;;5.29;100.00;100708.94;4990416;28;20208;-77
2021/12/30 04:04:43;;;;;;;81.95;12.93;;;;;;;5.25;100.00;100709.91;4989160;28;20213;-76
2021/12/30 04:07:09;;;;;;;65.75;11.60;;;;;;;5.26;100.00;100711.66;4993212;28;20181;-76
2021/12/30 04:09:36;;;;;;;71.68;11.32;;;;;;;5.29;100.00;100725.78;4992655;28;20173;-77
2021/12/30 04:12:02;;;;;;;76.43;10.60;;;;;;;5.26;100.00;100736.44;4994012;28;20193;-77
2021/12/30 04:14:27;;;;;;;74.65;10.52;;;;;;;5.25;100.00;100728.50;4993761;28;20166;-77
2021/12/30 04:16:54;;;;;;;82.55;11.40;;;;;;;5.27;100.00;100714.28;4992305;28;20172;-77
2021/12/30 04:19:19;;;;;;;63.55;9.70;;;;;;;5.15;100.00;100720.69;4975919;28;20220;-77
2021/12/30 04:21:45;;;;;;;72.88;11.07;;;;;;;5.21;100.00;100718.84;4992400;28;20189;-77
2021/12/30 04:24:11;;;;;;;67.80;10.63;;;;;;;5.26;100.00;100716.97;4992453;28;20177;-77
2021/12/30 04:26:36;;;;;;;58.67;9.70;;;;;;;5.32;100.00;100711.56;4993330;28;20231;-77
2021/12/30 04:29:03;;;;;;;58.42;9.18;;;;;;;5.28;100.00;100723.13;4993580;28;20552;-78
2021/12/30 04:31:28;;;;;;;74.75;10.93;;;;;;;5.20;100.00;100723.25;4993258;28;20196;-77
2021/12/30 04:33:53;;;;;;;72.75;10.30;;;;;;;5.19;100.00;100721.50;4992227;28;20174;-77
2021/12/30 04:36:19;;;;;;;74.47;9.73;;;;;;;5.20;100.00;100722.38;4975469;28;20213;-77
2021/12/30 04:38:44;;;;;;;74.68;9.93;;;;;;;5.16;100.00;100742.84;4991964;28;20214;-77
2021/12/30 04:41:10;;;;;;;74.90;10.40;;;;;;;5.12;100.00;100730.50;4993202;28;20241;-77
2021/12/30 04:43:35;;;;;;;71.53;9.55;;;;;;;5.12;100.00;100727.84;4991835;28;20207;-77
2021/12/30 04:46:02;;;;;;;72.93;9.70;;;;;;;5.09;100.00;100726.09;4991601;28;20635;-77
2021/12/30 04:48:28;;;;;;;57.33;9.43;;;;;;;5.20;100.00;100719.72;4985775;28;20173;-77
2021/12/30 04:50:53;;;;;;;64.57;11.13;;;;;;;5.12;100.00;100719.88;4972175;28;20209;-77
2021/12/30 04:53:19;;;;;;;73.15;10.93;;;;;;;5.21;100.00;100722.38;4972565;28;20181;-77
2021/12/30 04:55:46;;;;;;;56.38;9.93;;;;;;;5.18;100.00;100717.09;4984874;28;20650;-77
2021/12/30 04:58:12;;;;;;;63.00;10.43;;;;;;;5.14;100.00;100721.59;4986886;28;20221;-77
2021/12/30 05:00:38;;;;;;;62.42;8.73;;;;;;;5.04;100.00;100716.47;4973410;28;20207;-77
2021/12/30 05:03:14;;;;;;;66.20;9.55;;;;;;;5.09;100.00;100722.56;4973362;28;20627;-76
2021/12/30 05:05:46;;;;;;;67.85;10.05;;;;;;;5.06;100.00;100734.13;4955827;28;20273;-77
2021/12/30 05:08:14;;;;;;;61.53;9.05;;;;;;;5.03;100.00;100746.56;4973540;28;20173;-77
2021/12/30 05:10:40;;;;;;;52.92;9.25;;;;;;;5.02;100.00;100752.78;4971843;28;20210;-77
2021/12/30 05:13:07;;;;;;;61.63;9.45;;;;;;;5.10;100.00;100764.19;4973005;28;20174;-77
2021/12/30 05:15:33;;;;;;;63.15;9.25;;;;;;;5.03;100.00;100767.81;4973057;28;20217;-77
2021/12/30 05:17:58;;;;;;;66.07;8.77;;;;;;;5.04;100.00;100762.47;4973282;28;20292;-76
2021/12/30 05:20:24;;;;;;;52.95;8.43;;;;;;;5.02;100.00;100755.44;4971656;28;20683;-77
2021/12/30 05:22:50;;;;;;;55.33;8.80;;;;;;;5.03;100.00;100750.13;4972187;28;20178;-79
2021/12/30 05:25:18;;;;;;;60.75;7.88;;;;;;;5.06;100.00;100763.34;4971493;28;20670;-78
2021/12/30 05:27:43;;;;;;;56.42;8.75;;;;;;;4.91;100.00;100760.94;4972795;28;20162;-76
2021/12/30 05:30:11;;;;;;;58.90;8.48;;;;;;;4.96;100.00;100756.41;4971702;28;20631;-77
2021/12/30 05:32:37;;;;;;;58.95;8.60;;;;;;;5.05;100.00;100768.66;4971929;28;20181;-78
2021/12/30 05:35:04;;;;;;;59.88;9.07;;;;;;;5.06;100.00;100762.47;4972896;28;20652;-77
2021/12/30 05:37:30;;;;;;;63.65;10.02;;;;;;;5.07;100.00;100750.94;4971033;28;20193;-77
2021/12/30 05:39:55;;;;;;;51.65;9.25;;;;;;;5.02;100.00;100755.44;4971554;28;20186;-77
2021/12/30 05:42:22;;;;;;;67.15;11.02;;;;;;;5.06;100.00;100763.34;4972770;28;20180;-77
2021/12/30 05:44:53;;;;;;;60.42;11.98;;;;;;;5.11;100.00;100765.91;4955162;28;20280;-77
2021/12/30 05:47:19;;;;;;;47.67;12.30;;;;;;;5.10;100.00;100777.44;4955037;28;20174;-77
2021/12/30 05:49:45;;;;;;;54.30;13.00;;;;;;;5.13;100.00;100774.72;4972482;28;20261;-77
2021/12/30 05:52:11;;;;;;;65.88;13.30;;;;;;;5.18;100.00;100782.63;4972701;28;20611;-76
2021/12/30 05:54:37;;;;;;;58.38;13.25;;;;;;;5.12;100.00;100779.19;4971251;28;20244;-77
2021/12/30 05:57:02;;;;;;;50.40;12.80;;;;;;;5.10;100.00;100774.78;4972138;28;20273;-77
2021/12/30 05:59:28;;;;;;;53.53;13.40;;;;;;;5.05;100.00;100772.22;4987066;28;20197;-77
2021/12/30 06:01:53;;;;;;;68.05;12.68;;;;;;;5.04;100.00;100777.53;4991905;28;20735;-78
2021/12/30 06:04:19;;;;;;;63.30;12.57;;;;;;;5.06;100.00;100776.63;4991937;28;20755;-77
2021/12/30 06:06:44;;;;;;;70.13;13.82;;;;;;;5.05;100.00;100784.59;4990710;28;20196;-77
2021/12/30 06:09:10;;;;;;;52.15;13.95;;;;;;;5.03;100.00;100778.44;4992778;28;20248;-78
2021/12/30 06:11:37;;;;;;;61.08;14.05;;;;;;;5.08;100.00;100788.09;4996295;28;20588;-77
2021/12/30 06:14:03;;;;;;;72.15;15.10;;;;;;;5.05;100.00;100784.59;4995645;28;20170;-78
2021/12/30 06:16:28;;;;;;;55.88;12.95;;;;;;;4.96;100.00;100772.34;4992243;28;20186;-78
2021/12/30 06:18:54;;;;;;;65.20;13.05;;;;;;;4.92;100.00;100765.34;4991426;28;20201;-79
2021/12/30 06:21:19;;;;;;;65.88;14.45;;;;;;;5.12;100.00;100763.25;4991404;28;20595;-78
2021/12/30 06:23:45;;;;;;;58.72;14.23;;;;;;;5.14;100.00;100761.44;4994052;28;20187;-78
2021/12/30 06:26:10;;;;;;;56.25;14.55;;;;;;;5.18;100.00;100761.38;4993036;28;20169;-78
2021/12/30 06:28:35;;;;;;;72.90;17.05;;;;;;;5.22;100.00;100763.06;4978795;28;20185;-78
2021/12/30 06:31:01;;;;;;;60.97;16.60;;;;;;;5.27;100.00;100759.44;4976824;28;20252;-77
2021/12/30 06:33:26;;;;;;;62.83;16.85;;;;;;;5.27;100.00;100758.56;4977681;28;20335;-77
2021/12/30 06:35:52;;;;;;;68.32;16.65;;;;;;;5.27;100.00;100762.09;4989929;28;20192;-78
2021/12/30 06:38:18;;;;;;;71.20;16.90;;;;;;;5.28;100.00;100760.31;4991867;28;20201;-77
2021/12/30 06:40:43;;;;;;;65.93;16.98;;;;;;;5.26;100.00;100759.47;4984188;28;20244;-77
2021/12/30 06:43:09;;;;;;;70.70;17.33;;;;;;;5.40;100.00;100761.88;4991412;28;20545;-77
2021/12/30 06:45:34;;;;;;;57.70;15.73;;;;;;;5.35;100.00;100783.22;4989951;28;20268;-79
2021/12/30 06:48:00;;;;;;;61.33;14.95;;;;;;;5.36;100.00;100772.56;4990875;28;20166;-79
2021/12/30 06:50:31;;;;;;;57.17;16.17;;;;;;;5.37;100.00;100768.13;4993476;28;20199;-78
2021/12/30 06:52:56;;;;;;;67.32;15.68;;;;;;;5.34;100.00;100763.75;4973913;28;20193;-78
2021/12/30 06:55:22;;;;;;;63.53;15.85;;;;;;;5.39;100.00;100770.75;4990456;28;20187;-78
2021/12/30 06:57:47;;;;;;;67.53;15.68;;;;;;;5.32;100.00;100780.63;4988366;28;20217;-79
2021/12/30 07:00:14;;;;;;;52.45;12.65;;;;;;;5.36;100.00;100777.00;4972600;28;20174;-78
2021/12/30 07:02:44;;;;;;;64.85;14.43;;;;;;;5.36;100.00;100777.88;4973337;28;20186;-78
2021/12/30 07:05:10;;;;;;;69.90;12.98;;;;;;;5.27;100.00;100775.38;4971317;28;20408;-78
2021/12/30 07:07:36;;;;;;;54.55;12.23;;;;;;;5.22;100.00;100768.38;4974009;28;20181;-78
2021/12/30 07:10:04;;;;;;;57.63;13.65;;;;;;;5.26;100.00;100778.94;4974597;28;20182;-78
2021/12/30 07:12:30;;;;;;;65.05;13.13;;;;;;;5.27;100.00;100775.38;4973212;28;20513;-79
2021/12/30 07:14:57;;;;;;;48.72;12.95;;;;;;;5.32;100.00;100791.25;4972568;28;20236;-78
2021/12/30 07:17:23;;;;;;;55.88;12.15;;;;;;;5.27;100.00;100806.38;4954028;28;20186;-78
2021/12/30 07:19:48;;;;;;;59.03;12.43;;;;;;;5.18;100.00;100802.06;4970473;28;20178;-79
2021/12/30 07:22:14;;;;;;;60.25;13.40;;;;;;;5.23;100.00;100807.34;4968216;28;20356;-79
2021/12/30 07:24:39;;;;;;;54.97;12.00;;;;;;;5.29;100.00;100818.75;4987467;28;20227;-79
2021/12/30 07:27:05;;;;;;;57.15;12.70;;;;;;;5.27;100.00;100811.69;4992972;28;20178;-77
2021/12/30 07:29:30;;;;;;;65.53;13.77;;;;;;;5.27;100.00;100795.75;4990641;28;20170;-78
2021/12/30 07:31:56;;;;;;;76.43;13.93;;;;;;;5.27;100.00;100815.22;4989551;28;20209;-77
2021/12/30 07:34:21;;;;;;;52.60;12.85;;;;;;;5.31;100.00;100821.34;4989967;28;20197;-77
2021/12/30 07:36:46;;;;;;;61.75;15.23;;;;;;;5.30;100.00;100823.13;4988677;28;20185;-77
2021/12/30 07:39:12;;;;;;;56.90;14.77;;;;;;;5.25;100.00;100821.47;4989960;28;20212;-78
2021/12/30 07:41:37;;;;;;;73.53;14.55;;;;;;;5.22;100.00;100814.41;4994903;28;20189;-78
2021/12/30 07:44:03;;;;;;;70.38;16.08;;;;;;;5.24;100.00;100817.91;4993505;28;20208;-78
2021/12/30 07:46:29;;;;;;;69.47;15.02;;;;;;;5.20;100.00;100818.88;4994672;28;20411;-77
2021/12/30 07:48:54;;;;;;;61.28;16.13;;;;;;;5.25;100.00;100835.63;4994543;28;20639;-78
2021/12/30 07:51:19;;;;;;;67.32;16.83;;;;;;;5.27;100.00;100830.28;4994449;28;20221;-79
2021/12/30 07:53:45;;;;;;;67.93;17.52;;;;;;;5.31;100.00;100837.28;4995853;28;20173;-78
2021/12/30 07:56:10;;;;;;;67.03;17.92;;;;;;;5.34;100.00;100826.63;4994340;28;20208;-79
2021/12/30 07:58:36;;;;;;;80.20;19.77;;;;;;;5.36;100.00;100819.50;4994393;28;20243;-77
2021/12/30 08:01:02;;;;;;;75.07;19.63;;;;;;;5.34;100.00;100830.16;4993572;28;20239;-77
2021/12/30 08:03:28;;;;;;;78.15;19.25;;;;;;;5.37;100.00;100837.19;4994227;28;20185;-77
2021/12/30 08:05:53;;;;;;;72.45;20.63;;;;;;;5.40;100.00;100823.88;4993384;28;20224;-77
2021/12/30 08:08:19;;;;;;;73.90;19.08;;;;;;;5.43;100.00;100829.13;4992746;28;20177;-77
2021/12/30 08:10:44;;;;;;;71.20;19.13;;;;;;;5.45;100.00;100824.66;4992446;28;20564;-78
2021/12/30 08:13:10;;;;;;;78.93;21.60;;;;;;;5.44;100.00;100836.19;4992410;28;20170;-78
2021/12/30 08:15:35;;;;;;;108.85;21.05;;;;;;;5.42;100.00;100831.81;4993492;28;20233;-78
2021/12/30 08:18:02;;;;;;;92.88;21.35;;;;;;;5.55;100.00;100836.91;4994418;28;20926;-78
2021/12/30 08:20:27;;;;;;;79.32;20.52;;;;;;;5.56;100.00;100845.75;4994804;28;20181;-78
2021/12/30 08:22:54;;;;;;;85.45;21.35;;;;;;;5.55;100.00;100858.16;4994789;28;20189;-78
2021/12/30 08:25:21;;;;;;;75.97;21.55;;;;;;;5.59;100.00;100861.63;4993549;28;20260;-78
2021/12/30 08:27:47;;;;;;;72.18;20.27;;;;;;;5.64;100.00;100840.28;4993353;28;20205;-78
2021/12/30 08:30:16;;;;;;;83.03;21.05;;;;;;;5.60;100.00;100847.44;4991326;28;20173;-78
2021/12/30 08:32:42;;;;;;;90.90;22.15;;;;;;;5.64;100.00;100845.59;5006065;28;20599;-79
2021/12/30 08:35:09;;;;;;;80.65;22.27;;;;;;;5.69;100.00;100847.28;4950614;28;20374;-78
2021/12/30 08:37:36;;;;;;;86.40;21.83;;;;;;;5.68;100.00;100849.94;4968535;28;20230;-78
2021/12/30 08:40:05;;;;;;;90.55;22.77;;;;;;;5.74;100.00;100857.81;4975299;28;20170;-78
2021/12/30 08:42:31;;;;;;;98.80;22.77;;;;;;;5.72;100.00;100857.84;4974197;28;20181;-80
2021/12/30 08:44:59;;;;;;;91.97;22.98;;;;;;;5.67;100.00;100857.06;4974931;28;20174;-78
2021/12/30 08:47:26;;;;;;;83.35;22.70;;;;;;;5.65;100.00;100848.22;4977231;28;20178;-78
2021/12/30 08:49:53;;;;;;;87.32;24.38;;;;;;;5.63;100.00;100865.13;4976644;28;20273;-78
2021/12/30 08:52:21;;;;;;;102.38;24.65;;;;;;;5.68;100.00;100879.19;4975615;28;20657;-76
2021/12/30 08:54:47;;;;;;;96.57;24.80;;;;;;;5.73;100.00;100870.25;4979146;28;20188;-79
2021/12/30 08:57:14;;;;;;;101.18;25.67;;;;;;;5.83;100.00;100870.06;4981126;28;20181;-79
2021/12/30 08:59:39;;;;;;;89.90;25.15;;;;;;;5.82;100.00;100886.94;4976016;28;20210;-78
2021/12/30 09:02:07;;;;;;;103.35;26.38;;;;;;;5.83;100.00;100872.72;4975382;28;20186;-77
2021/12/30 09:04:33;;;;;;;87.97;23.85;;;;;;;5.82;100.00;100865.69;4972611;28;20177;-78
2021/12/30 09:07:00;;;;;;;82.22;25.38;;;;;;;5.87;100.00;100874.44;4975359;28;20253;-78
2021/12/30 09:09:26;;;;;;;109.10;26.60;;;;;;;5.86;100.00;100872.66;4959952;28;20177;-79
2021/12/30 09:11:52;;;;;;;107.45;26.77;;;;;;;5.91;100.00;100870.81;4957054;28;20205;-79
2021/12/30 09:14:17;;;;;;;109.95;28.05;;;;;;;5.93;100.00;100869.88;4973091;28;20170;-79
2021/12/30 09:16:43;;;;;;;102.70;27.25;;;;;;;5.97;100.00;100865.44;4972934;28;20170;-79
2021/12/30 09:19:09;;;;;;;109.40;27.70;;;;;;;5.99;100.00;100879.53;4971645;28;20228;-79
2021/12/30 09:21:39;;;;;;;122.90;29.20;;;;;;;5.98;100.00;100872.47;4971935;28;20200;-79
2021/12/30 09:24:07;;;;;;;105.95;30.13;;;;;;;5.96;100.00;100874.28;4974536;28;20193;-78
2021/12/30 09:26:33;;;;;;;107.78;29.85;;;;;;;6.02;100.00;100866.22;4974640;28;20220;-78
2021/12/30 09:28:58;;;;;;;98.43;28.35;;;;;;;5.99;100.00;100858.28;4976240;28;20599;-78
2021/12/30 09:31:24;;;;;;;110.68;32.15;;;;;;;6.08;100.00;100863.44;4972707;28;20210;-78
2021/12/30 09:33:49;;;;;;;103.55;29.38;;;;;;;6.08;100.00;100851.91;4972071;28;20166;-77
2021/12/30 09:36:15;;;;;;;109.78;30.45;;;;;;;6.09;100.00;100861.66;4971009;28;20174;-77
2021/12/30 09:38:40;;;;;;;130.10;32.05;;;;;;;6.08;100.00;100842.16;4988092;28;20358;-78
2021/12/30 09:41:06;;;;;;;110.18;31.50;;;;;;;6.08;100.00;100844.81;4989411;28;20272;-78
2021/12/30 09:43:31;;;;;;;105.93;31.05;;;;;;;6.07;100.00;100851.03;4992457;28;20165;-78
2021/12/30 09:45:57;;;;;;;113.40;30.73;;;;;;;6.13;100.00;100850.91;4992208;28;20176;-78
2021/12/30 09:48:25;;;;;;;116.18;32.40;;;;;;;6.11;100.00;100857.19;4993098;28;20169;-77
2021/12/30 09:50:54;;;;;;;122.45;33.08;;;;;;;6.11;100.00;100860.69;4990735;28;20213;-77
2021/12/30 09:53:22;;;;;;;110.00;31.98;;;;;;;6.17;100.00;100841.09;4993014;28;20185;-77
2021/12/30 09:55:49;;;;;;;118.43;32.33;;;;;;;6.15;100.00;100840.25;4990592;28;20256;-77
2021/12/30 09:58:15;;;;;;;111.70;32.67;;;;;;;6.13;100.00;100834.97;4984100;28;20323;-77
2021/12/30 10:00:40;;;;;;;109.40;32.38;;;;;;;6.18;100.00;100861.47;4972334;28;20190;-78
2021/12/30 10:03:06;;;;;;;100.93;31.75;;;;;;;6.24;100.00;100855.16;4971361;28;20899;-78
2021/12/30 10:05:36;;;;;;;108.90;34.00;;;;;;;6.19;100.00;100868.56;4914337;28;20634;-77
2021/12/30 10:08:12;;;;;;;107.07;33.17;;;;;;;6.25;100.00;100862.22;4935259;29;20561;-78
2021/12/30 10:10:39;;;;;;;113.95;33.15;;;;;;;6.26;100.00;100859.53;4917826;29;20603;-78
2021/12/30 10:13:27;;;;;;;102.53;33.35;;;;;;;6.42;100.00;100860.09;4933461;29;20179;-77
2021/12/30 10:16:09;;;;;;;99.03;32.17;;;;;;;6.57;100.00;100857.09;4933616;29;20152;-77
2021/12/30 10:18:58;;;;;;;114.63;33.63;;;;;;;6.38;100.00;100855.72;4934878;29;20199;-78
2021/12/30 10:21:35;;;;;;;105.90;34.72;;;;;;;6.36;100.00;100846.91;4934962;29;20187;-77
2021/12/30 10:24:04;;;;;;;115.70;34.70;;;;;;;6.34;100.00;100849.63;4935074;29;20233;-77
2021/12/30 10:26:29;;;;;;;106.35;34.03;;;;;;;6.40;100.00;100857.44;4932506;29;20178;-77
2021/12/30 10:29:00;;;;;;;98.25;34.05;;;;;;;6.42;100.00;100843.25;4935323;29;20179;-78
2021/12/30 10:31:28;;;;;;;126.82;35.15;;;;;;;6.45;100.00;100832.53;4933638;29;20196;-78
2021/12/30 10:33:57;;;;;;;90.45;31.90;;;;;;;6.53;100.00;100851.88;4933681;29;20176;-78
2021/12/30 10:36:32;;;;;;;107.47;34.17;;;;;;;6.52;100.00;100837.72;4916777;29;20172;-77
2021/12/30 10:39:23;;;;;;;102.85;33.13;;;;;;;6.54;100.00;100856.31;4964009;28;20301;-78
2021/12/30 10:41:51;;;;;;;91.20;31.98;;;;;;;6.56;100.00;100849.19;4933574;29;20197;-79
2021/12/30 10:44:17;;;;;;;83.28;30.95;;;;;;;6.60;100.00;100854.41;4934644;29;20183;-79
2021/12/30 10:46:43;;;;;;;79.13;29.02;;;;;;;6.68;100.00;100854.22;4933631;29;20306;-78
2021/12/30 10:49:11;;;;;;;82.60;29.80;;;;;;;6.63;100.00;100845.47;4950879;29;20207;-77
2021/12/30 10:51:48;;;;;;;77.68;29.13;;;;;;;6.70;100.00;100854.19;4934821;29;20664;-78
2021/12/30 10:54:30;;;;;;;78.60;28.92;;;;;;;6.76;100.00;100828.31;4933475;29;20171;-79
2021/12/30 10:56:59;;;;;;;75.88;28.35;;;;;;;6.79;100.00;100838.00;4933243;29;20513;-78
2021/12/30 10:59:32;;;;;;;66.03;26.13;;;;;;;6.74;100.00;100842.56;4965396;28;20206;-78
2021/12/30 11:02:02;;;;;;;73.18;26.98;;;;;;;6.75;100.00;100823.00;4934082;29;20195;-78
2021/12/30 11:04:43;;;;;;;67.88;25.83;;;;;;;6.81;100.00;100830.84;4964104;28;20212;-77
2021/12/30 11:07:12;;;;;;;64.28;23.98;;;;;;;6.86;100.00;100807.66;4933426;29;21004;-77